sensor_id;sensor_type;location;lat;lon;timestamp;P1;durP1;ratioP1;P2;durP2;ratioP2
44722;SDS011;30451;48.638;10.624;2023-01-29T00:01:07;2.97;;;1.60;;
44722;SDS011;30451;48.638;10.624;2023-01-29T00:03:34;2.60;;;1.50;;
44722;SDS011;30451;48.638;10.624;2023-01-29T00:06:02;2.50;;;1.50;;
44722;SDS011;30451;48.638;10.624;2023-01-29T00:08:32;2.38;;;1.55;;
44722;SDS011;30451;48.638;10.624;2023-01-29T00:11:02;2.38;;;1.50;;
44722;SDS011;30451;48.638;10.624;2023-01-29T00:13:31;2.63;;;1.60;;
44722;SDS011;30451;48.638;10.624;2023-01-29T00:15:58;2.10;;;1.30;;
44722;SDS011;30451;48.638;10.624;2023-01-29T00:18:24;2.30;;;1.60;;
44722;SDS011;30451;48.638;10.624;2023-01-29T00:20:51;2.63;;;1.70;;
44722;SDS011;30451;48.638;10.624;2023-01-29T00:23:17;2.80;;;1.55;;
44722;SDS011;30451;48.638;10.624;2023-01-29T00:25:43;2.05;;;1.38;;
44722;SDS011;30451;48.638;10.624;2023-01-29T00:28:09;3.00;;;1.50;;
44722;SDS011;30451;48.638;10.624;2023-01-29T00:30:36;2.10;;;1.30;;
44722;SDS011;30451;48.638;10.624;2023-01-29T00:33:02;3.15;;;1.80;;
44722;SDS011;30451;48.638;10.624;2023-01-29T00:35:28;2.70;;;1.45;;
44722;SDS011;30451;48.638;10.624;2023-01-29T00:37:54;2.55;;;1.75;;
44722;SDS011;30451;48.638;10.624;2023-01-29T00:40:20;2.33;;;1.50;;
44722;SDS011;30451;48.638;10.624;2023-01-29T00:42:47;2.40;;;1.63;;
44722;SDS011;30451;48.638;10.624;2023-01-29T00:45:31;2.20;;;1.38;;
44722;SDS011;30451;48.638;10.624;2023-01-29T00:47:57;2.33;;;1.52;;
44722;SDS011;30451;48.638;10.624;2023-01-29T00:50:23;1.77;;;1.23;;
44722;SDS011;30451;48.638;10.624;2023-01-29T00:52:48;2.88;;;1.60;;
44722;SDS011;30451;48.638;10.624;2023-01-29T00:55:15;2.40;;;1.40;;
44722;SDS011;30451;48.638;10.624;2023-01-29T00:57:41;2.08;;;1.45;;
44722;SDS011;30451;48.638;10.624;2023-01-29T01:00:09;3.00;;;1.45;;
44722;SDS011;30451;48.638;10.624;2023-01-29T01:02:36;2.50;;;1.40;;
44722;SDS011;30451;48.638;10.624;2023-01-29T01:05:20;2.47;;;1.60;;
44722;SDS011;30451;48.638;10.624;2023-01-29T01:07:50;2.10;;;1.35;;
44722;SDS011;30451;48.638;10.624;2023-01-29T01:10:56;2.65;;;1.55;;
44722;SDS011;30451;48.638;10.624;2023-01-29T01:13:09;3.05;;;1.50;;
44722;SDS011;30451;48.638;10.624;2023-01-29T01:15:36;2.22;;;1.20;;
44722;SDS011;30451;48.638;10.624;2023-01-29T01:18:03;2.40;;;1.52;;
44722;SDS011;30451;48.638;10.624;2023-01-29T01:20:30;2.47;;;1.45;;
44722;SDS011;30451;48.638;10.624;2023-01-29T01:22:58;2.10;;;1.40;;
44722;SDS011;30451;48.638;10.624;2023-01-29T01:25:24;2.30;;;1.40;;
44722;SDS011;30451;48.638;10.624;2023-01-29T01:27:51;2.47;;;1.52;;
44722;SDS011;30451;48.638;10.624;2023-01-29T01:30:18;2.03;;;1.20;;
44722;SDS011;30451;48.638;10.624;2023-01-29T01:32:43;2.00;;;1.25;;
44722;SDS011;30451;48.638;10.624;2023-01-29T01:35:09;2.88;;;1.33;;
44722;SDS011;30451;48.638;10.624;2023-01-29T01:37:36;1.65;;;1.08;;
44722;SDS011;30451;48.638;10.624;2023-01-29T01:40:06;1.50;;;1.20;;
44722;SDS011;30451;48.638;10.624;2023-01-29T01:42:42;2.13;;;1.30;;
44722;SDS011;30451;48.638;10.624;2023-01-29T01:47:46;1.88;;;1.27;;
44722;SDS011;30451;48.638;10.624;2023-01-29T01:50:23;1.77;;;1.20;;
44722;SDS011;30451;48.638;10.624;2023-01-29T01:52:56;1.52;;;1.10;;
44722;SDS011;30451;48.638;10.624;2023-01-29T01:55:25;1.67;;;1.10;;
44722;SDS011;30451;48.638;10.624;2023-01-29T01:57:54;1.60;;;1.10;;
44722;SDS011;30451;48.638;10.624;2023-01-29T02:00:26;3.45;;;1.30;;
44722;SDS011;30451;48.638;10.624;2023-01-29T02:02:52;1.83;;;1.23;;
44722;SDS011;30451;48.638;10.624;2023-01-29T02:05:37;1.70;;;1.20;;
44722;SDS011;30451;48.638;10.624;2023-01-29T02:09:09;2.30;;;1.40;;
44722;SDS011;30451;48.638;10.624;2023-01-29T02:11:41;1.77;;;1.25;;
44722;SDS011;30451;48.638;10.624;2023-01-29T02:14:07;1.83;;;1.23;;
44722;SDS011;30451;48.638;10.624;2023-01-29T02:16:33;1.80;;;1.10;;
44722;SDS011;30451;48.638;10.624;2023-01-29T02:19:00;2.17;;;1.25;;
44722;SDS011;30451;48.638;10.624;2023-01-29T02:24:20;1.52;;;1.00;;
44722;SDS011;30451;48.638;10.624;2023-01-29T02:35:16;1.95;;;1.10;;
44722;SDS011;30451;48.638;10.624;2023-01-29T02:40:50;1.58;;;0.93;;
44722;SDS011;30451;48.638;10.624;2023-01-29T02:43:33;1.80;;;1.10;;
44722;SDS011;30451;48.638;10.624;2023-01-29T02:46:21;1.52;;;1.00;;
44722;SDS011;30451;48.638;10.624;2023-01-29T02:48:56;1.80;;;1.00;;
44722;SDS011;30451;48.638;10.624;2023-01-29T02:56:43;1.10;;;0.82;;
44722;SDS011;30451;48.638;10.624;2023-01-29T02:59:34;1.42;;;1.10;;
44722;SDS011;30451;48.638;10.624;2023-01-29T03:02:16;1.83;;;1.10;;
44722;SDS011;30451;48.638;10.624;2023-01-29T03:04:48;1.45;;;1.00;;
44722;SDS011;30451;48.638;10.624;2023-01-29T03:07:21;1.80;;;1.00;;
44722;SDS011;30451;48.638;10.624;2023-01-29T03:10:12;1.90;;;1.10;;
44722;SDS011;30451;48.638;10.624;2023-01-29T03:12:50;1.50;;;0.90;;
44722;SDS011;30451;48.638;10.624;2023-01-29T03:15:22;1.70;;;1.10;;
44722;SDS011;30451;48.638;10.624;2023-01-29T03:18:09;1.42;;;0.90;;
44722;SDS011;30451;48.638;10.624;2023-01-29T03:20:42;1.50;;;0.93;;
44722;SDS011;30451;48.638;10.624;2023-01-29T03:23:33;1.45;;;0.95;;
44722;SDS011;30451;48.638;10.624;2023-01-29T03:26:18;1.05;;;0.90;;
44722;SDS011;30451;48.638;10.624;2023-01-29T03:29:05;1.40;;;1.00;;
44722;SDS011;30451;48.638;10.624;2023-01-29T03:31:51;1.13;;;0.88;;
44722;SDS011;30451;48.638;10.624;2023-01-29T03:34:29;1.17;;;0.90;;
44722;SDS011;30451;48.638;10.624;2023-01-29T03:39:42;1.38;;;0.90;;
44722;SDS011;30451;48.638;10.624;2023-01-29T03:42:11;1.30;;;1.00;;
44722;SDS011;30451;48.638;10.624;2023-01-29T03:49:53;0.95;;;0.80;;
44722;SDS011;30451;48.638;10.624;2023-01-29T03:55:00;1.20;;;0.90;;
44722;SDS011;30451;48.638;10.624;2023-01-29T04:00:27;1.52;;;0.90;;
44722;SDS011;30451;48.638;10.624;2023-01-29T04:03:01;1.48;;;1.00;;
44722;SDS011;30451;48.638;10.624;2023-01-29T04:05:41;1.33;;;0.88;;
44722;SDS011;30451;48.638;10.624;2023-01-29T04:08:34;1.20;;;0.80;;
44722;SDS011;30451;48.638;10.624;2023-01-29T04:11:06;1.88;;;1.15;;
44722;SDS011;30451;48.638;10.624;2023-01-29T04:13:35;1.20;;;0.90;;
44722;SDS011;30451;48.638;10.624;2023-01-29T04:16:03;1.17;;;0.80;;
44722;SDS011;30451;48.638;10.624;2023-01-29T04:20:57;1.48;;;0.95;;
44722;SDS011;30451;48.638;10.624;2023-01-29T04:23:25;0.90;;;0.80;;
44722;SDS011;30451;48.638;10.624;2023-01-29T04:26:06;1.42;;;1.00;;
44722;SDS011;30451;48.638;10.624;2023-01-29T04:29:00;1.25;;;0.80;;
44722;SDS011;30451;48.638;10.624;2023-01-29T04:31:50;0.98;;;0.80;;
44722;SDS011;30451;48.638;10.624;2023-01-29T04:34:32;1.02;;;0.73;;
44722;SDS011;30451;48.638;10.624;2023-01-29T04:39:39;1.10;;;0.80;;
44722;SDS011;30451;48.638;10.624;2023-01-29T04:45:03;0.98;;;0.65;;
44722;SDS011;30451;48.638;10.624;2023-01-29T04:47:49;1.40;;;0.88;;
44722;SDS011;30451;48.638;10.624;2023-01-29T04:50:31;0.85;;;0.80;;
44722;SDS011;30451;48.638;10.624;2023-01-29T04:55:32;0.80;;;0.77;;
44722;SDS011;30451;48.638;10.624;2023-01-29T05:01:09;1.42;;;0.70;;
44722;SDS011;30451;48.638;10.624;2023-01-29T05:03:38;0.82;;;0.70;;
44722;SDS011;30451;48.638;10.624;2023-01-29T05:06:07;0.90;;;0.70;;
44722;SDS011;30451;48.638;10.624;2023-01-29T05:08:34;1.27;;;0.80;;
44722;SDS011;30451;48.638;10.624;2023-01-29T05:11:03;1.25;;;0.88;;
44722;SDS011;30451;48.638;10.624;2023-01-29T05:13:29;0.75;;;0.70;;
44722;SDS011;30451;48.638;10.624;2023-01-29T05:16:13;1.20;;;0.70;;
44722;SDS011;30451;48.638;10.624;2023-01-29T05:18:43;0.93;;;0.73;;
44722;SDS011;30451;48.638;10.624;2023-01-29T05:21:10;1.10;;;0.80;;
44722;SDS011;30451;48.638;10.624;2023-01-29T05:23:36;0.75;;;0.70;;
44722;SDS011;30451;48.638;10.624;2023-01-29T05:26:02;0.70;;;0.70;;
44722;SDS011;30451;48.638;10.624;2023-01-29T05:28:28;1.05;;;0.70;;
44722;SDS011;30451;48.638;10.624;2023-01-29T05:30:54;1.08;;;0.80;;
44722;SDS011;30451;48.638;10.624;2023-01-29T05:35:51;1.00;;;0.73;;
44722;SDS011;30451;48.638;10.624;2023-01-29T05:38:17;1.02;;;0.73;;
44722;SDS011;30451;48.638;10.624;2023-01-29T05:40:43;1.20;;;0.75;;
44722;SDS011;30451;48.638;10.624;2023-01-29T05:43:19;1.08;;;0.70;;
44722;SDS011;30451;48.638;10.624;2023-01-29T05:45:56;1.30;;;0.82;;
44722;SDS011;30451;48.638;10.624;2023-01-29T05:48:23;1.00;;;0.77;;
44722;SDS011;30451;48.638;10.624;2023-01-29T05:50:49;0.90;;;0.70;;
44722;SDS011;30451;48.638;10.624;2023-01-29T05:53:15;0.73;;;0.60;;
44722;SDS011;30451;48.638;10.624;2023-01-29T05:55:46;1.23;;;0.75;;
44722;SDS011;30451;48.638;10.624;2023-01-29T05:58:12;0.98;;;0.70;;
44722;SDS011;30451;48.638;10.624;2023-01-29T06:00:38;0.70;;;0.70;;
44722;SDS011;30451;48.638;10.624;2023-01-29T06:03:04;0.75;;;0.70;;
44722;SDS011;30451;48.638;10.624;2023-01-29T06:05:30;0.95;;;0.70;;
44722;SDS011;30451;48.638;10.624;2023-01-29T06:07:56;1.42;;;0.63;;
44722;SDS011;30451;48.638;10.624;2023-01-29T06:10:21;0.88;;;0.70;;
44722;SDS011;30451;48.638;10.624;2023-01-29T06:12:47;0.57;;;0.57;;
44722;SDS011;30451;48.638;10.624;2023-01-29T06:15:13;0.55;;;0.55;;
44722;SDS011;30451;48.638;10.624;2023-01-29T06:17:43;0.63;;;0.60;;
44722;SDS011;30451;48.638;10.624;2023-01-29T06:20:09;1.30;;;0.80;;
44722;SDS011;30451;48.638;10.624;2023-01-29T06:22:35;1.40;;;0.90;;
44722;SDS011;30451;48.638;10.624;2023-01-29T06:25:00;0.70;;;0.68;;
44722;SDS011;30451;48.638;10.624;2023-01-29T06:27:26;0.88;;;0.60;;
44722;SDS011;30451;48.638;10.624;2023-01-29T06:29:52;0.93;;;0.70;;
44722;SDS011;30451;48.638;10.624;2023-01-29T06:32:17;1.27;;;0.90;;
44722;SDS011;30451;48.638;10.624;2023-01-29T06:34:43;0.90;;;0.60;;
44722;SDS011;30451;48.638;10.624;2023-01-29T06:37:08;0.50;;;0.50;;
44722;SDS011;30451;48.638;10.624;2023-01-29T06:39:34;0.80;;;0.80;;
44722;SDS011;30451;48.638;10.624;2023-01-29T06:42:00;0.90;;;0.70;;
44722;SDS011;30451;48.638;10.624;2023-01-29T06:44:25;1.10;;;0.73;;
44722;SDS011;30451;48.638;10.624;2023-01-29T06:46:51;1.63;;;0.82;;
44722;SDS011;30451;48.638;10.624;2023-01-29T06:49:17;0.70;;;0.70;;
44722;SDS011;30451;48.638;10.624;2023-01-29T06:51:42;1.48;;;1.00;;
44722;SDS011;30451;48.638;10.624;2023-01-29T06:54:08;0.73;;;0.60;;
44722;SDS011;30451;48.638;10.624;2023-01-29T06:56:34;0.85;;;0.70;;
44722;SDS011;30451;48.638;10.624;2023-01-29T06:59:00;0.77;;;0.60;;
44722;SDS011;30451;48.638;10.624;2023-01-29T07:01:26;0.60;;;0.60;;
44722;SDS011;30451;48.638;10.624;2023-01-29T07:03:51;0.65;;;0.60;;
44722;SDS011;30451;48.638;10.624;2023-01-29T07:06:17;0.60;;;0.60;;
44722;SDS011;30451;48.638;10.624;2023-01-29T07:08:43;0.80;;;0.65;;
44722;SDS011;30451;48.638;10.624;2023-01-29T07:11:09;0.90;;;0.70;;
44722;SDS011;30451;48.638;10.624;2023-01-29T07:13:35;1.27;;;0.90;;
44722;SDS011;30451;48.638;10.624;2023-01-29T07:16:02;0.85;;;0.63;;
44722;SDS011;30451;48.638;10.624;2023-01-29T07:18:29;0.80;;;0.70;;
44722;SDS011;30451;48.638;10.624;2023-01-29T07:20:55;0.98;;;0.75;;
44722;SDS011;30451;48.638;10.624;2023-01-29T07:23:21;0.70;;;0.70;;
44722;SDS011;30451;48.638;10.624;2023-01-29T07:25:47;0.75;;;0.70;;
44722;SDS011;30451;48.638;10.624;2023-01-29T07:28:16;0.85;;;0.70;;
44722;SDS011;30451;48.638;10.624;2023-01-29T07:30:42;0.82;;;0.60;;
44722;SDS011;30451;48.638;10.624;2023-01-29T07:33:08;0.80;;;0.70;;
44722;SDS011;30451;48.638;10.624;2023-01-29T07:35:35;0.55;;;0.55;;
44722;SDS011;30451;48.638;10.624;2023-01-29T07:38:04;0.85;;;0.60;;
44722;SDS011;30451;48.638;10.624;2023-01-29T07:40:31;0.70;;;0.60;;
44722;SDS011;30451;48.638;10.624;2023-01-29T07:42:57;1.15;;;0.90;;
44722;SDS011;30451;48.638;10.624;2023-01-29T07:45:23;0.63;;;0.63;;
44722;SDS011;30451;48.638;10.624;2023-01-29T07:47:53;0.93;;;0.70;;
44722;SDS011;30451;48.638;10.624;2023-01-29T07:50:20;0.73;;;0.70;;
44722;SDS011;30451;48.638;10.624;2023-01-29T07:52:50;0.88;;;0.63;;
44722;SDS011;30451;48.638;10.624;2023-01-29T07:55:21;0.70;;;0.60;;
44722;SDS011;30451;48.638;10.624;2023-01-29T07:57:47;1.10;;;0.70;;
44722;SDS011;30451;48.638;10.624;2023-01-29T08:00:18;0.82;;;0.60;;
44722;SDS011;30451;48.638;10.624;2023-01-29T08:02:44;0.60;;;0.60;;
44722;SDS011;30451;48.638;10.624;2023-01-29T08:05:10;0.88;;;0.70;;
44722;SDS011;30451;48.638;10.624;2023-01-29T08:07:36;0.50;;;0.50;;
44722;SDS011;30451;48.638;10.624;2023-01-29T08:10:01;0.63;;;0.55;;
44722;SDS011;30451;48.638;10.624;2023-01-29T08:12:27;0.60;;;0.60;;
44722;SDS011;30451;48.638;10.624;2023-01-29T08:14:52;0.70;;;0.60;;
44722;SDS011;30451;48.638;10.624;2023-01-29T08:17:18;0.50;;;0.50;;
44722;SDS011;30451;48.638;10.624;2023-01-29T08:19:44;1.00;;;0.63;;
44722;SDS011;30451;48.638;10.624;2023-01-29T08:22:09;0.70;;;0.63;;
44722;SDS011;30451;48.638;10.624;2023-01-29T08:24:35;0.93;;;0.70;;
44722;SDS011;30451;48.638;10.624;2023-01-29T08:27:00;0.90;;;0.60;;
44722;SDS011;30451;48.638;10.624;2023-01-29T08:29:26;0.55;;;0.52;;
44722;SDS011;30451;48.638;10.624;2023-01-29T08:31:51;1.10;;;0.70;;
44722;SDS011;30451;48.638;10.624;2023-01-29T08:34:17;0.60;;;0.60;;
44722;SDS011;30451;48.638;10.624;2023-01-29T08:36:43;0.85;;;0.70;;
44722;SDS011;30451;48.638;10.624;2023-01-29T08:39:08;1.27;;;0.80;;
44722;SDS011;30451;48.638;10.624;2023-01-29T08:41:34;0.55;;;0.55;;
44722;SDS011;30451;48.638;10.624;2023-01-29T08:44:00;0.50;;;0.50;;
44722;SDS011;30451;48.638;10.624;2023-01-29T08:46:28;0.50;;;0.50;;
44722;SDS011;30451;48.638;10.624;2023-01-29T08:48:54;0.77;;;0.60;;
44722;SDS011;30451;48.638;10.624;2023-01-29T08:51:20;0.80;;;0.65;;
44722;SDS011;30451;48.638;10.624;2023-01-29T08:53:49;0.55;;;0.55;;
44722;SDS011;30451;48.638;10.624;2023-01-29T08:56:15;2.13;;;0.70;;
44722;SDS011;30451;48.638;10.624;2023-01-29T08:58:41;0.70;;;0.57;;
44722;SDS011;30451;48.638;10.624;2023-01-29T09:01:07;0.93;;;0.68;;
44722;SDS011;30451;48.638;10.624;2023-01-29T09:03:34;0.73;;;0.60;;
44722;SDS011;30451;48.638;10.624;2023-01-29T09:06:00;0.70;;;0.60;;
44722;SDS011;30451;48.638;10.624;2023-01-29T09:08:25;0.77;;;0.60;;
44722;SDS011;30451;48.638;10.624;2023-01-29T09:10:51;0.60;;;0.60;;
44722;SDS011;30451;48.638;10.624;2023-01-29T09:13:16;0.90;;;0.70;;
44722;SDS011;30451;48.638;10.624;2023-01-29T09:15:42;0.60;;;0.57;;
44722;SDS011;30451;48.638;10.624;2023-01-29T09:18:08;0.60;;;0.60;;
44722;SDS011;30451;48.638;10.624;2023-01-29T09:20:33;0.70;;;0.52;;
44722;SDS011;30451;48.638;10.624;2023-01-29T09:23:05;0.55;;;0.50;;
44722;SDS011;30451;48.638;10.624;2023-01-29T09:25:32;1.08;;;0.60;;
44722;SDS011;30451;48.638;10.624;2023-01-29T09:27:57;0.40;;;0.40;;
44722;SDS011;30451;48.638;10.624;2023-01-29T09:30:23;0.60;;;0.60;;
44722;SDS011;30451;48.638;10.624;2023-01-29T09:32:48;0.50;;;0.50;;
44722;SDS011;30451;48.638;10.624;2023-01-29T09:35:14;0.70;;;0.60;;
44722;SDS011;30451;48.638;10.624;2023-01-29T09:37:39;0.60;;;0.60;;
44722;SDS011;30451;48.638;10.624;2023-01-29T09:40:05;0.73;;;0.60;;
44722;SDS011;30451;48.638;10.624;2023-01-29T09:42:49;0.60;;;0.60;;
44722;SDS011;30451;48.638;10.624;2023-01-29T09:45:27;0.75;;;0.68;;
44722;SDS011;30451;48.638;10.624;2023-01-29T09:47:57;0.75;;;0.55;;
44722;SDS011;30451;48.638;10.624;2023-01-29T09:50:28;0.95;;;0.63;;
44722;SDS011;30451;48.638;10.624;2023-01-29T09:55:48;0.52;;;0.50;;
44722;SDS011;30451;48.638;10.624;2023-01-29T09:58:21;0.60;;;0.57;;
44722;SDS011;30451;48.638;10.624;2023-01-29T10:03:33;0.90;;;0.60;;
44722;SDS011;30451;48.638;10.624;2023-01-29T10:06:21;0.63;;;0.63;;
44722;SDS011;30451;48.638;10.624;2023-01-29T10:11:42;0.82;;;0.80;;
44722;SDS011;30451;48.638;10.624;2023-01-29T10:16:45;0.82;;;0.60;;
44722;SDS011;30451;48.638;10.624;2023-01-29T10:25:17;0.70;;;0.70;;
44722;SDS011;30451;48.638;10.624;2023-01-29T10:27:46;0.60;;;0.60;;
44722;SDS011;30451;48.638;10.624;2023-01-29T10:32:49;0.82;;;0.70;;
44722;SDS011;30451;48.638;10.624;2023-01-29T10:35:23;0.68;;;0.65;;
44722;SDS011;30451;48.638;10.624;2023-01-29T10:37:55;0.73;;;0.60;;
44722;SDS011;30451;48.638;10.624;2023-01-29T10:40:28;1.02;;;0.60;;
44722;SDS011;30451;48.638;10.624;2023-01-29T10:43:09;0.55;;;0.55;;
44722;SDS011;30451;48.638;10.624;2023-01-29T10:54:21;0.60;;;0.60;;
44722;SDS011;30451;48.638;10.624;2023-01-29T10:57:13;0.55;;;0.55;;
44722;SDS011;30451;48.638;10.624;2023-01-29T11:00:00;0.60;;;0.60;;
44722;SDS011;30451;48.638;10.624;2023-01-29T11:02:45;0.80;;;0.60;;
44722;SDS011;30451;48.638;10.624;2023-01-29T11:07:47;0.60;;;0.60;;
44722;SDS011;30451;48.638;10.624;2023-01-29T11:10:19;0.65;;;0.65;;
44722;SDS011;30451;48.638;10.624;2023-01-29T11:12:48;0.70;;;0.60;;
44722;SDS011;30451;48.638;10.624;2023-01-29T11:15:32;0.70;;;0.70;;
44722;SDS011;30451;48.638;10.624;2023-01-29T11:20:29;0.73;;;0.73;;
44722;SDS011;30451;48.638;10.624;2023-01-29T11:22:55;0.90;;;0.70;;
44722;SDS011;30451;48.638;10.624;2023-01-29T11:25:23;0.70;;;0.70;;
44722;SDS011;30451;48.638;10.624;2023-01-29T11:27:53;0.80;;;0.70;;
44722;SDS011;30451;48.638;10.624;2023-01-29T11:32:58;0.60;;;0.60;;
44722;SDS011;30451;48.638;10.624;2023-01-29T11:35:44;0.73;;;0.70;;
44722;SDS011;30451;48.638;10.624;2023-01-29T11:41:04;0.60;;;0.60;;
44722;SDS011;30451;48.638;10.624;2023-01-29T11:43:31;1.15;;;0.75;;
44722;SDS011;30451;48.638;10.624;2023-01-29T11:46:04;0.60;;;0.60;;
44722;SDS011;30451;48.638;10.624;2023-01-29T11:51:10;0.80;;;0.70;;
44722;SDS011;30451;48.638;10.624;2023-01-29T11:53:47;0.88;;;0.70;;
44722;SDS011;30451;48.638;10.624;2023-01-29T11:56:21;0.68;;;0.68;;
44722;SDS011;30451;48.638;10.624;2023-01-29T11:58:55;0.70;;;0.60;;
44722;SDS011;30451;48.638;10.624;2023-01-29T12:01:43;0.60;;;0.60;;
44722;SDS011;30451;48.638;10.624;2023-01-29T12:04:15;1.10;;;0.80;;
44722;SDS011;30451;48.638;10.624;2023-01-29T12:06:44;0.93;;;0.77;;
44722;SDS011;30451;48.638;10.624;2023-01-29T12:09:16;0.63;;;0.63;;
44722;SDS011;30451;48.638;10.624;2023-01-29T12:11:46;0.90;;;0.70;;
44722;SDS011;30451;48.638;10.624;2023-01-29T12:14:27;1.05;;;0.80;;
44722;SDS011;30451;48.638;10.624;2023-01-29T12:16:58;0.70;;;0.65;;
44722;SDS011;30451;48.638;10.624;2023-01-29T12:22:13;0.73;;;0.70;;
44722;SDS011;30451;48.638;10.624;2023-01-29T12:25:05;0.90;;;0.70;;
44722;SDS011;30451;48.638;10.624;2023-01-29T12:27:37;0.60;;;0.60;;
44722;SDS011;30451;48.638;10.624;2023-01-29T12:36:26;1.17;;;0.90;;
44722;SDS011;30451;48.638;10.624;2023-01-29T12:39:02;0.95;;;0.73;;
44722;SDS011;30451;48.638;10.624;2023-01-29T12:44:14;1.15;;;0.80;;
44722;SDS011;30451;48.638;10.624;2023-01-29T12:46:45;1.48;;;0.70;;
44722;SDS011;30451;48.638;10.624;2023-01-29T12:49:29;1.00;;;0.80;;
44722;SDS011;30451;48.638;10.624;2023-01-29T12:54:41;0.77;;;0.63;;
44722;SDS011;30451;48.638;10.624;2023-01-29T12:57:25;1.05;;;0.80;;
44722;SDS011;30451;48.638;10.624;2023-01-29T13:00:05;1.08;;;0.80;;
44722;SDS011;30451;48.638;10.624;2023-01-29T13:02:42;0.88;;;0.77;;
44722;SDS011;30451;48.638;10.624;2023-01-29T13:05:35;0.93;;;0.80;;
44722;SDS011;30451;48.638;10.624;2023-01-29T13:08:09;1.15;;;0.73;;
44722;SDS011;30451;48.638;10.624;2023-01-29T13:10:48;1.25;;;0.90;;
44722;SDS011;30451;48.638;10.624;2023-01-29T13:13:35;1.00;;;0.80;;
44722;SDS011;30451;48.638;10.624;2023-01-29T13:16:11;0.88;;;0.70;;
44722;SDS011;30451;48.638;10.624;2023-01-29T13:18:46;1.00;;;0.73;;
44722;SDS011;30451;48.638;10.624;2023-01-29T13:21:23;0.80;;;0.65;;
44722;SDS011;30451;48.638;10.624;2023-01-29T13:24:13;0.80;;;0.60;;
44722;SDS011;30451;48.638;10.624;2023-01-29T13:26:39;1.40;;;0.80;;
44722;SDS011;30451;48.638;10.624;2023-01-29T13:29:13;1.33;;;0.70;;
44722;SDS011;30451;48.638;10.624;2023-01-29T13:31:49;1.27;;;0.75;;
44722;SDS011;30451;48.638;10.624;2023-01-29T13:34:23;1.08;;;0.88;;
44722;SDS011;30451;48.638;10.624;2023-01-29T13:36:53;1.75;;;0.80;;
44722;SDS011;30451;48.638;10.624;2023-01-29T13:39:39;0.73;;;0.57;;
44722;SDS011;30451;48.638;10.624;2023-01-29T13:42:53;0.80;;;0.73;;
44722;SDS011;30451;48.638;10.624;2023-01-29T13:45:22;1.13;;;0.73;;
44722;SDS011;30451;48.638;10.624;2023-01-29T13:47:53;1.27;;;0.80;;
44722;SDS011;30451;48.638;10.624;2023-01-29T13:50:51;0.90;;;0.80;;
44722;SDS011;30451;48.638;10.624;2023-01-29T13:53:31;0.95;;;0.80;;
44722;SDS011;30451;48.638;10.624;2023-01-29T13:58:59;1.80;;;1.15;;
44722;SDS011;30451;48.638;10.624;2023-01-29T14:06:57;2.38;;;1.10;;
44722;SDS011;30451;48.638;10.624;2023-01-29T14:09:30;2.03;;;1.20;;
44722;SDS011;30451;48.638;10.624;2023-01-29T14:12:02;3.42;;;1.55;;
44722;SDS011;30451;48.638;10.624;2023-01-29T14:17:21;1.52;;;1.10;;
44722;SDS011;30451;48.638;10.624;2023-01-29T14:19:49;1.77;;;1.13;;
44722;SDS011;30451;48.638;10.624;2023-01-29T14:22:20;2.28;;;0.95;;
44722;SDS011;30451;48.638;10.624;2023-01-29T14:24:49;3.25;;;1.40;;
44722;SDS011;30451;48.638;10.624;2023-01-29T14:27:20;1.80;;;1.10;;
44722;SDS011;30451;48.638;10.624;2023-01-29T14:29:49;2.00;;;1.13;;
44722;SDS011;30451;48.638;10.624;2023-01-29T14:32:21;2.65;;;1.00;;
44722;SDS011;30451;48.638;10.624;2023-01-29T14:34:49;2.53;;;1.30;;
44722;SDS011;30451;48.638;10.624;2023-01-29T14:37:33;2.05;;;1.15;;
44722;SDS011;30451;48.638;10.624;2023-01-29T14:40:13;1.80;;;1.00;;
44722;SDS011;30451;48.638;10.624;2023-01-29T14:45:31;3.22;;;1.40;;
44722;SDS011;30451;48.638;10.624;2023-01-29T14:53:17;3.55;;;1.13;;
44722;SDS011;30451;48.638;10.624;2023-01-29T14:55:47;2.35;;;1.17;;
44722;SDS011;30451;48.638;10.624;2023-01-29T14:58:18;2.65;;;1.20;;
44722;SDS011;30451;48.638;10.624;2023-01-29T15:01:13;2.85;;;1.30;;
44722;SDS011;30451;48.638;10.624;2023-01-29T15:03:47;1.88;;;1.10;;
44722;SDS011;30451;48.638;10.624;2023-01-29T15:06:49;2.90;;;1.10;;
44722;SDS011;30451;48.638;10.624;2023-01-29T15:11:46;2.05;;;1.10;;
44722;SDS011;30451;48.638;10.624;2023-01-29T15:14:20;2.08;;;1.00;;
44722;SDS011;30451;48.638;10.624;2023-01-29T15:19:42;2.50;;;1.20;;
44722;SDS011;30451;48.638;10.624;2023-01-29T15:22:19;2.08;;;1.25;;
44722;SDS011;30451;48.638;10.624;2023-01-29T15:24:47;2.28;;;1.00;;
44722;SDS011;30451;48.638;10.624;2023-01-29T15:27:41;2.85;;;0.82;;
44722;SDS011;30451;48.638;10.624;2023-01-29T15:30:11;2.78;;;1.20;;
44722;SDS011;30451;48.638;10.624;2023-01-29T15:32:43;1.92;;;1.20;;
44722;SDS011;30451;48.638;10.624;2023-01-29T15:35:12;1.60;;;1.00;;
44722;SDS011;30451;48.638;10.624;2023-01-29T15:37:42;3.88;;;1.48;;
44722;SDS011;30451;48.638;10.624;2023-01-29T15:40:21;2.20;;;1.15;;
44722;SDS011;30451;48.638;10.624;2023-01-29T15:42:47;2.13;;;1.20;;
44722;SDS011;30451;48.638;10.624;2023-01-29T15:45:29;3.10;;;1.48;;
44722;SDS011;30451;48.638;10.624;2023-01-29T15:48:00;3.03;;;1.30;;
44722;SDS011;30451;48.638;10.624;2023-01-29T15:50:38;4.05;;;1.40;;
44722;SDS011;30451;48.638;10.624;2023-01-29T15:53:06;3.10;;;1.63;;
44722;SDS011;30451;48.638;10.624;2023-01-29T15:55:39;2.67;;;1.60;;
44722;SDS011;30451;48.638;10.624;2023-01-29T15:58:05;3.00;;;1.90;;
44722;SDS011;30451;48.638;10.624;2023-01-29T16:00:37;2.33;;;1.30;;
44722;SDS011;30451;48.638;10.624;2023-01-29T16:03:12;4.47;;;1.70;;
44722;SDS011;30451;48.638;10.624;2023-01-29T16:05:39;2.15;;;1.23;;
44722;SDS011;30451;48.638;10.624;2023-01-29T16:08:05;2.50;;;1.20;;
44722;SDS011;30451;48.638;10.624;2023-01-29T16:10:36;2.35;;;1.02;;
44722;SDS011;30451;48.638;10.624;2023-01-29T16:13:04;2.83;;;1.13;;
44722;SDS011;30451;48.638;10.624;2023-01-29T16:15:40;1.92;;;1.10;;
44722;SDS011;30451;48.638;10.624;2023-01-29T16:20:49;2.38;;;1.30;;
44722;SDS011;30451;48.638;10.624;2023-01-29T16:23:19;2.88;;;1.30;;
44722;SDS011;30451;48.638;10.624;2023-01-29T16:25:48;3.35;;;1.40;;
44722;SDS011;30451;48.638;10.624;2023-01-29T16:28:15;3.22;;;1.27;;
44722;SDS011;30451;48.638;10.624;2023-01-29T16:30:42;4.05;;;1.30;;
44722;SDS011;30451;48.638;10.624;2023-01-29T16:33:10;2.42;;;1.20;;
44722;SDS011;30451;48.638;10.624;2023-01-29T16:35:38;2.38;;;1.50;;
44722;SDS011;30451;48.638;10.624;2023-01-29T16:38:05;2.63;;;1.38;;
44722;SDS011;30451;48.638;10.624;2023-01-29T16:40:41;2.42;;;1.20;;
44722;SDS011;30451;48.638;10.624;2023-01-29T16:43:45;3.83;;;1.38;;
44722;SDS011;30451;48.638;10.624;2023-01-29T16:46:31;4.85;;;1.60;;
44722;SDS011;30451;48.638;10.624;2023-01-29T16:48:58;3.38;;;1.60;;
44722;SDS011;30451;48.638;10.624;2023-01-29T16:54:11;2.38;;;1.30;;
44722;SDS011;30451;48.638;10.624;2023-01-29T16:56:45;2.72;;;1.77;;
44722;SDS011;30451;48.638;10.624;2023-01-29T16:59:17;2.67;;;1.40;;
44722;SDS011;30451;48.638;10.624;2023-01-29T17:01:51;3.67;;;1.60;;
44722;SDS011;30451;48.638;10.624;2023-01-29T17:04:18;3.85;;;1.40;;
44722;SDS011;30451;48.638;10.624;2023-01-29T17:06:45;2.60;;;1.30;;
44722;SDS011;30451;48.638;10.624;2023-01-29T17:09:20;3.20;;;1.65;;
44722;SDS011;30451;48.638;10.624;2023-01-29T17:11:55;3.95;;;2.38;;
44722;SDS011;30451;48.638;10.624;2023-01-29T17:14:24;3.83;;;2.20;;
44722;SDS011;30451;48.638;10.624;2023-01-29T17:19:42;3.88;;;2.20;;